Time;durP1;ratioP1;P1;durP2;ratioP2;P2;SDS_P1;SDS_P2;PMS_P1;PMS_P2;Temp;Humidity;BMP_temperature;BMP_pressure;BME280_temperature;BME280_humidity;BME280_pressure;Samples;Min_cycle;Max_cycle;Signal;HPM_P1;HPM_P2
2022/10/09 00:02:25;;;;;;;;;;;28.40;92.80;;;;;;5023882;28;20059;-46
2022/10/09 00:04:51;;;;;;;;;;;28.40;92.70;;;;;;5024110;28;19901;-46
2022/10/09 00:07:18;;;;;;;;;;;28.40;92.70;;;;;;5023299;28;24099;-52
2022/10/09 00:09:44;;;;;;;;;;;28.40;92.60;;;;;;5023881;28;24074;-45
2022/10/09 00:12:10;;;;;;;;;;;28.40;92.80;;;;;;5023683;28;19927;-45
2022/10/09 00:14:36;;;;;;;;;;;28.40;92.70;;;;;;5023300;28;24077;-47
2022/10/09 00:17:02;;;;;;;;;;;28.40;92.60;;;;;;5023346;28;25101;-45
2022/10/09 00:19:28;;;;;;;;;;;28.40;92.60;;;;;;5023297;28;19940;-45
2022/10/09 00:21:54;;;;;;;;;;;28.40;92.60;;;;;;5024100;28;19905;-46
2022/10/09 00:24:20;;;;;;;;;;;28.40;92.60;;;;;;5023260;28;19937;-50
2022/10/09 00:26:47;;;;;;;;;;;28.30;92.50;;;;;;5023667;28;19916;-47
2022/10/09 00:29:13;;;;;;;;;;;28.30;92.60;;;;;;5023326;28;19929;-48
2022/10/09 00:31:39;;;;;;;;;;;28.30;92.50;;;;;;5024019;28;19917;-44
2022/10/09 00:34:05;;;;;;;;;;;28.30;92.50;;;;;;5023516;28;24082;-44
2022/10/09 00:36:31;;;;;;;;;;;28.30;92.40;;;;;;5023973;28;20037;-48
2022/10/09 00:38:57;;;;;;;;;;;28.20;92.40;;;;;;5022895;28;25097;-45
2022/10/09 00:41:28;;;;;;;;;;;28.30;92.40;;;;;;5023630;28;20209;-44
2022/10/09 00:43:58;;;;;;;;;;;28.20;92.30;;;;;;5022929;28;20208;-46
2022/10/09 00:46:45;;;;;;;;;;;28.30;92.30;;;;;;5006034;28;19916;-48
2022/10/09 00:49:38;;;;;;;;;;;28.30;92.30;;;;;;5023061;28;24084;-45
2022/10/09 00:52:06;;;;;;;;;;;28.20;92.00;;;;;;5023100;28;25135;-44
2022/10/09 00:54:40;;;;;;;;;;;28.20;92.00;;;;;;5023058;28;19910;-50
2022/10/09 00:57:07;;;;;;;;;;;28.20;92.00;;;;;;5005524;28;19910;-47
2022/10/09 00:59:33;;;;;;;;;;;28.20;92.00;;;;;;5023154;28;20098;-50
2022/10/09 01:01:59;;;;;;;;;;;28.20;92.00;;;;;;5023639;28;20178;-51
2022/10/09 01:04:26;;;;;;;;;;;28.20;92.10;;;;;;5025304;28;19913;-42
2022/10/09 01:06:52;;;;;;;;;;;28.20;91.90;;;;;;5026526;28;24069;-45
2022/10/09 01:09:20;;;;;;;;;;;28.10;92.00;;;;;;5038989;28;20185;-47
2022/10/09 01:11:58;;;;;;;;;;;28.00;92.10;;;;;;5023362;28;19910;-44
2022/10/09 01:14:29;;;;;;;;;;;28.00;92.10;;;;;;5011588;28;24067;-47
2022/10/09 01:17:17;;;;;;;;;;;28.00;92.10;;;;;;5042653;28;19979;-47
2022/10/09 01:20:01;;;;;;;;;;;27.90;92.20;;;;;;5022632;28;20191;-45
2022/10/09 01:22:27;;;;;;;;;;;27.90;92.30;;;;;;5023253;28;19952;-43
2022/10/09 01:25:13;;;;;;;;;;;27.80;92.20;;;;;;5022741;28;19902;-48
2022/10/09 01:27:41;;;;;;;;;;;27.80;92.20;;;;;;5022749;28;24083;-48
2022/10/09 01:30:08;;;;;;;;;;;27.80;92.20;;;;;;5022904;28;19984;-50
2022/10/09 01:32:37;;;;;;;;;;;27.80;92.20;;;;;;5022648;28;25140;-52
2022/10/09 01:35:04;;;;;;;;;;;27.80;92.40;;;;;;5023098;28;19954;-51
2022/10/09 01:37:32;;;;;;;;;;;27.80;92.40;;;;;;5021996;28;19975;-47
2022/10/09 01:39:59;;;;;;;;;;;27.80;92.30;;;;;;5004434;28;19920;-55
2022/10/09 01:42:26;;;;;;;;;;;27.80;92.30;;;;;;5022680;28;20030;-47
2022/10/09 01:44:52;;;;;;;;;;;27.90;92.40;;;;;;5022614;28;19988;-49
2022/10/09 01:47:19;;;;;;;;;;;27.80;92.40;;;;;;5022481;28;19906;-50
2022/10/09 01:49:49;;;;;;;;;;;27.80;92.40;;;;;;5004793;28;19981;-46
2022/10/09 01:52:21;;;;;;;;;;;27.80;92.40;;;;;;5022565;28;19972;-50
2022/10/09 01:55:05;;;;;;;;;;;27.80;92.40;;;;;;5004914;28;20101;-46
2022/10/09 01:57:37;;;;;;;;;;;27.70;92.50;;;;;;5022515;28;25080;-47
2022/10/09 02:00:06;;;;;;;;;;;27.70;92.60;;;;;;5022569;28;19920;-49
2022/10/09 02:02:33;;;;;;;;;;;27.70;92.60;;;;;;5022505;28;19940;-49
2022/10/09 02:04:59;;;;;;;;;;;27.70;92.50;;;;;;5022372;28;19906;-46
2022/10/09 02:07:26;;;;;;;;;;;27.70;92.60;;;;;;5022331;28;20046;-51
2022/10/09 02:09:52;;;;;;;;;;;27.70;92.50;;;;;;5022657;28;19902;-47
2022/10/09 02:12:19;;;;;;;;;;;27.70;92.40;;;;;;5022220;28;24076;-50
2022/10/09 02:14:45;;;;;;;;;;;27.70;92.50;;;;;;5037592;28;20207;-45
2022/10/09 02:17:14;;;;;;;;;;;27.60;92.60;;;;;;5039492;28;19905;-46
2022/10/09 02:19:40;;;;;;;;;;;27.60;92.70;;;;;;5041722;28;19909;-43
2022/10/09 02:22:13;;;;;;;;;;;27.60;92.80;;;;;;5041679;28;19913;-45
2022/10/09 02:24:39;;;;;;;;;;;27.50;92.80;;;;;;5020533;28;19914;-48
2022/10/09 02:27:06;;;;;;;;;;;27.50;92.80;;;;;;5021529;28;20097;-50
2022/10/09 02:29:32;;;;;;;;;;;27.50;92.70;;;;;;5021839;28;19917;-45
2022/10/09 02:31:59;;;;;;;;;;;27.40;92.90;;;;;;5021971;28;20140;-50
2022/10/09 02:34:25;;;;;;;;;;;27.40;93.10;;;;;;5022132;28;19905;-43
2022/10/09 02:36:51;;;;;;;;;;;27.40;93.00;;;;;;5022346;28;20032;-46
2022/10/09 02:39:17;;;;;;;;;;;27.50;92.90;;;;;;5004055;28;20048;-47
2022/10/09 02:41:43;;;;;;;;;;;27.50;92.90;;;;;;5021392;28;19909;-46
2022/10/09 02:44:09;;;;;;;;;;;27.50;92.90;;;;;;5021783;28;20291;-46
2022/10/09 02:46:37;;;;;;;;;;;27.50;92.90;;;;;;5021676;28;24050;-48
2022/10/09 02:49:04;;;;;;;;;;;27.50;93.00;;;;;;5019607;28;19944;-45
2022/10/09 02:51:30;;;;;;;;;;;27.50;93.00;;;;;;5002709;28;19909;-55
2022/10/09 02:53:58;;;;;;;;;;;27.50;93.00;;;;;;5021291;28;19910;-48
2022/10/09 02:56:24;;;;;;;;;;;27.50;93.10;;;;;;5021788;28;20170;-46
2022/10/09 02:58:50;;;;;;;;;;;27.40;93.20;;;;;;5021249;28;19908;-51
2022/10/09 03:01:17;;;;;;;;;;;27.40;93.10;;;;;;5021460;28;25113;-48
2022/10/09 03:03:44;;;;;;;;;;;27.40;93.30;;;;;;5021550;28;19912;-47
2022/10/09 03:06:12;;;;;;;;;;;27.40;93.20;;;;;;5021774;28;20058;-51
2022/10/09 03:08:39;;;;;;;;;;;27.30;93.30;;;;;;5021707;28;19945;-49
2022/10/09 03:11:06;;;;;;;;;;;27.30;93.10;;;;;;5021800;28;20025;-46
2022/10/09 03:13:32;;;;;;;;;;;27.40;93.20;;;;;;5020871;28;19956;-51
2022/10/09 03:16:05;;;;;;;;;;;27.40;93.20;;;;;;5021758;28;19925;-48
2022/10/09 03:18:31;;;;;;;;;;;27.40;93.10;;;;;;5021281;28;20111;-47
2022/10/09 03:21:40;;;;;;;;;;;;;;;;;;;;;
2022/10/09 03:24:13;;;;;;;;;;;27.30;93.20;;;;;;5018412;28;19905;-51
2022/10/09 03:27:29;;;;;;;;;;;;;;;;;;;;;
2022/10/09 03:29:44;;;;;;;;;;;27.30;93.30;;;;;;5040680;28;19935;-42
2022/10/09 03:32:10;;;;;;;;;;;27.30;93.20;;;;;;5020922;28;19906;-43
2022/10/09 03:34:36;;;;;;;;;;;27.30;93.50;;;;;;5020788;28;20196;-46
2022/10/09 03:37:02;;;;;;;;;;;27.40;93.20;;;;;;5020842;28;24107;-47
2022/10/09 03:39:28;;;;;;;;;;;27.40;93.20;;;;;;5020464;28;20030;-46
2022/10/09 03:41:54;;;;;;;;;;;27.40;93.20;;;;;;5021486;28;19913;-45
2022/10/09 03:44:21;;;;;;;;;;;27.40;93.20;;;;;;5020702;28;19931;-45
2022/10/09 03:46:47;;;;;;;;;;;27.40;93.20;;;;;;5020939;28;20007;-46
2022/10/09 03:49:13;;;;;;;;;;;27.50;93.30;;;;;;5020594;28;20024;-45
2022/10/09 03:51:39;;;;;;;;;;;27.50;93.40;;;;;;5020783;28;20078;-44
2022/10/09 03:54:05;;;;;;;;;;;27.40;93.40;;;;;;5021124;28;19912;-45
2022/10/09 03:56:31;;;;;;;;;;;27.50;93.40;;;;;;5003167;28;20157;-54
2022/10/09 03:58:57;;;;;;;;;;;27.40;93.40;;;;;;5020317;28;19952;-45
2022/10/09 04:01:24;;;;;;;;;;;27.40;93.40;;;;;;5021251;28;19909;-44
2022/10/09 04:03:50;;;;;;;;;;;27.40;93.50;;;;;;5020412;28;20128;-44
2022/10/09 04:06:16;;;;;;;;;;;27.40;93.50;;;;;;5020515;28;19930;-43
2022/10/09 04:08:42;;;;;;;;;;;27.40;93.50;;;;;;5020493;28;19910;-44
2022/10/09 04:11:08;;;;;;;;;;;27.50;93.60;;;;;;5020585;28;19916;-46
2022/10/09 04:13:34;;;;;;;;;;;27.50;93.60;;;;;;5020381;28;20101;-50
2022/10/09 04:16:00;;;;;;;;;;;27.40;93.60;;;;;;5059163;28;24100;-46
2022/10/09 04:18:27;;;;;;;;;;;27.40;93.60;;;;;;5026703;28;20085;-43
2022/10/09 04:20:54;;;;;;;;;;;27.50;93.70;;;;;;5020523;28;20048;-44
2022/10/09 04:23:22;;;;;;;;;;;27.40;93.90;;;;;;5020159;28;19905;-43
2022/10/09 04:25:51;;;;;;;;;;;27.40;94.00;;;;;;5020583;28;20097;-45
2022/10/09 04:28:18;;;;;;;;;;;27.40;94.00;;;;;;5023685;28;19905;-56
2022/10/09 04:30:44;;;;;;;;;;;27.40;94.00;;;;;;5023641;28;19966;-45
2022/10/09 04:33:10;;;;;;;;;;;27.40;94.20;;;;;;5023605;28;20205;-49
2022/10/09 04:35:40;;;;;;;;;;;27.40;94.00;;;;;;5023767;28;19910;-42
2022/10/09 04:38:06;;;;;;;;;;;27.40;94.00;;;;;;5023535;28;19916;-43
2022/10/09 04:40:32;;;;;;;;;;;27.40;93.90;;;;;;5026511;28;20022;-43
2022/10/09 04:42:58;;;;;;;;;;;27.40;93.90;;;;;;5032036;28;20093;-48
2022/10/09 04:45:24;;;;;;;;;;;27.40;93.90;;;;;;5030847;28;19944;-46
2022/10/09 04:47:50;;;;;;;;;;;27.40;93.90;;;;;;5026901;28;19905;-50
2022/10/09 04:50:17;;;;;;;;;;;27.30;93.80;;;;;;5023500;28;19905;-43
2022/10/09 04:52:43;;;;;;;;;;;27.40;93.90;;;;;;5022986;28;19927;-46
2022/10/09 04:55:09;;;;;;;;;;;27.30;93.80;;;;;;5023606;28;20044;-50
2022/10/09 04:57:35;;;;;;;;;;;27.40;93.70;;;;;;5023373;28;19912;-53
2022/10/09 05:00:01;;;;;;;;;;;27.40;93.70;;;;;;5023180;28;19913;-44
2022/10/09 05:02:27;;;;;;;;;;;27.30;93.70;;;;;;5023010;28;20017;-49
2022/10/09 05:04:55;;;;;;;;;;;27.30;93.60;;;;;;5023049;28;19905;-49
2022/10/09 05:07:21;;;;;;;;;;;27.30;93.60;;;;;;5023255;28;19947;-51
2022/10/09 05:09:48;;;;;;;;;;;27.30;93.60;;;;;;5023043;28;19905;-48
2022/10/09 05:12:14;;;;;;;;;;;27.30;93.60;;;;;;5022991;28;20243;-45
2022/10/09 05:14:40;;;;;;;;;;;27.30;93.70;;;;;;5025453;28;19905;-44
2022/10/09 05:17:06;;;;;;;;;;;27.30;93.70;;;;;;5031878;28;19968;-43
2022/10/09 05:19:33;;;;;;;;;;;27.30;93.60;;;;;;5022971;28;20089;-48
2022/10/09 05:22:00;;;;;;;;;;;27.30;93.60;;;;;;5023117;28;19980;-47
2022/10/09 05:24:27;;;;;;;;;;;27.30;93.60;;;;;;5022877;28;24081;-46
2022/10/09 05:26:53;;;;;;;;;;;27.30;93.60;;;;;;5022988;28;20063;-47
2022/10/09 05:29:19;;;;;;;;;;;27.30;93.60;;;;;;5022789;28;19913;-52
2022/10/09 05:31:46;;;;;;;;;;;27.20;93.60;;;;;;5023024;28;19909;-48
2022/10/09 05:34:12;;;;;;;;;;;27.30;93.60;;;;;;5023097;28;19948;-50
2022/10/09 05:36:38;;;;;;;;;;;27.30;93.60;;;;;;5022727;28;19940;-44
2022/10/09 05:39:04;;;;;;;;;;;27.20;93.60;;;;;;5022023;28;20097;-43
2022/10/09 05:41:30;;;;;;;;;;;27.20;93.60;;;;;;5028063;28;19910;-47
2022/10/09 05:43:59;;;;;;;;;;;27.20;93.60;;;;;;5028235;28;19941;-48
2022/10/09 05:46:26;;;;;;;;;;;27.20;93.60;;;;;;5022718;28;19905;-49
2022/10/09 05:48:53;;;;;;;;;;;27.20;93.60;;;;;;5022650;28;20040;-49
2022/10/09 05:51:20;;;;;;;;;;;27.20;93.70;;;;;;5023059;28;19910;-49
2022/10/09 05:53:47;;;;;;;;;;;27.20;93.70;;;;;;5022235;28;24063;-51
2022/10/09 05:56:20;;;;;;;;;;;27.20;93.70;;;;;;5022467;28;20178;-47
2022/10/09 05:58:51;;;;;;;;;;;27.20;93.70;;;;;;5022203;28;19910;-55
2022/10/09 06:01:17;;;;;;;;;;;27.20;93.80;;;;;;5022739;28;20100;-50
2022/10/09 06:03:47;;;;;;;;;;;27.10;93.70;;;;;;5022174;28;19949;-51
2022/10/09 06:06:13;;;;;;;;;;;27.10;93.70;;;;;;5022565;28;19932;-45
2022/10/09 06:08:39;;;;;;;;;;;27.10;93.80;;;;;;5022149;28;19901;-46
2022/10/09 06:11:27;;;;;;;;;;;27.10;93.80;;;;;;5022828;28;20020;-44
2022/10/09 06:13:54;;;;;;;;;;;27.10;93.80;;;;;;5022156;28;19920;-46
2022/10/09 06:16:22;;;;;;;;;;;27.10;93.80;;;;;;5021771;28;19917;-44
2022/10/09 06:18:48;;;;;;;;;;;27.10;93.80;;;;;;5022162;28;20097;-50
2022/10/09 06:21:14;;;;;;;;;;;27.10;93.80;;;;;;5021970;28;25064;-48
2022/10/09 06:23:41;;;;;;;;;;;27.00;93.80;;;;;;5022077;28;20078;-50
2022/10/09 06:26:08;;;;;;;;;;;27.00;93.80;;;;;;5021860;28;24092;-49
2022/10/09 06:28:34;;;;;;;;;;;27.10;93.90;;;;;;5021444;28;19973;-51
2022/10/09 06:31:01;;;;;;;;;;;27.00;93.80;;;;;;5022173;28;19914;-47
2022/10/09 06:33:34;;;;;;;;;;;27.00;93.90;;;;;;5021811;28;19901;-44
2022/10/09 06:36:05;;;;;;;;;;;27.00;93.90;;;;;;5021826;28;19917;-43
2022/10/09 06:38:32;;;;;;;;;;;27.00;93.90;;;;;;5021784;28;20130;-48
2022/10/09 06:41:02;;;;;;;;;;;27.00;93.90;;;;;;5021703;28;19916;-44
2022/10/09 06:43:28;;;;;;;;;;;27.00;94.00;;;;;;5021490;28;19964;-45
2022/10/09 06:45:54;;;;;;;;;;;27.00;93.90;;;;;;5021681;28;19976;-49
2022/10/09 06:48:20;;;;;;;;;;;27.00;93.90;;;;;;5020980;28;19906;-49
2022/10/09 06:50:46;;;;;;;;;;;27.00;93.90;;;;;;5021245;28;19905;-49
2022/10/09 06:53:12;;;;;;;;;;;27.00;93.90;;;;;;5021706;28;19919;-48
2022/10/09 06:55:38;;;;;;;;;;;27.00;93.90;;;;;;5021620;28;19910;-49
2022/10/09 06:58:05;;;;;;;;;;;27.00;93.90;;;;;;5085889;28;19903;-46
2022/10/09 07:00:31;;;;;;;;;;;27.00;93.90;;;;;;5124776;28;24063;-51
2022/10/09 07:02:57;;;;;;;;;;;27.00;94.00;;;;;;5124321;28;20211;-50
2022/10/09 07:05:23;;;;;;;;;;;26.90;94.00;;;;;;5124755;28;19915;-48
2022/10/09 07:07:49;;;;;;;;;;;26.90;94.00;;;;;;5123945;28;25080;-51
2022/10/09 07:10:15;;;;;;;;;;;26.90;94.00;;;;;;5125001;28;19945;-50
2022/10/09 07:12:41;;;;;;;;;;;26.90;94.00;;;;;;5124565;28;19938;-52
2022/10/09 07:15:08;;;;;;;;;;;26.90;94.00;;;;;;5124663;28;19950;-54
2022/10/09 07:17:34;;;;;;;;;;;26.90;94.10;;;;;;5124631;28;19900;-54
2022/10/09 07:20:00;;;;;;;;;;;26.90;94.10;;;;;;5124521;28;19918;-55
2022/10/09 07:22:26;;;;;;;;;;;26.90;94.00;;;;;;5124325;28;24100;-43
2022/10/09 07:24:52;;;;;;;;;;;26.90;94.10;;;;;;5124529;28;19912;-45
2022/10/09 07:27:18;;;;;;;;;;;26.90;94.10;;;;;;5124402;28;19997;-48
2022/10/09 07:29:45;;;;;;;;;;;26.90;94.10;;;;;;5124291;28;19911;-46
2022/10/09 07:32:11;;;;;;;;;;;26.90;94.10;;;;;;5124373;28;19956;-45
2022/10/09 07:34:37;;;;;;;;;;;26.90;94.10;;;;;;5124067;28;24074;-45
2022/10/09 07:37:03;;;;;;;;;;;26.90;94.10;;;;;;5124571;28;19908;-48
2022/10/09 07:39:29;;;;;;;;;;;26.90;94.10;;;;;;5123920;28;19978;-44
2022/10/09 07:41:55;;;;;;;;;;;26.90;94.20;;;;;;5124330;28;20306;-54
2022/10/09 07:44:21;;;;;;;;;;;26.90;94.30;;;;;;5124505;28;19911;-48
2022/10/09 07:46:51;;;;;;;;;;;26.90;94.20;;;;;;5124936;28;19910;-44
2022/10/09 07:49:17;;;;;;;;;;;26.90;94.20;;;;;;5124090;28;20207;-46
2022/10/09 07:51:44;;;;;;;;;;;26.90;94.10;;;;;;5124712;28;20182;-43
2022/10/09 07:54:10;;;;;;;;;;;26.90;94.20;;;;;;5124273;28;19910;-43
2022/10/09 07:56:39;;;;;;;;;;;26.80;94.20;;;;;;5124346;28;20013;-45
2022/10/09 07:59:12;;;;;;;;;;;26.80;94.20;;;;;;5123707;28;24099;-42
2022/10/09 08:01:38;;;;;;;;;;;26.80;94.20;;;;;;5127837;28;20221;-44
2022/10/09 08:04:04;;;;;;;;;;;26.80;94.20;;;;;;5128224;28;19974;-45
2022/10/09 08:06:31;;;;;;;;;;;26.80;94.30;;;;;;5128443;28;19935;-44
2022/10/09 08:08:58;;;;;;;;;;;26.80;94.30;;;;;;5128046;28;19904;-47
2022/10/09 08:11:25;;;;;;;;;;;26.80;94.30;;;;;;5128407;28;19914;-47
2022/10/09 08:13:52;;;;;;;;;;;26.80;94.20;;;;;;5127971;28;19962;-46
2022/10/09 08:16:19;;;;;;;;;;;26.80;94.30;;;;;;5128133;28;24097;-47
2022/10/09 08:18:46;;;;;;;;;;;26.80;94.30;;;;;;5127705;28;19900;-52
2022/10/09 08:21:13;;;;;;;;;;;26.80;94.30;;;;;;5127972;28;19919;-53
2022/10/09 08:23:39;;;;;;;;;;;26.80;94.30;;;;;;5128113;28;19903;-58
2022/10/09 08:26:15;;;;;;;;;;;26.70;94.30;;;;;;5127668;28;19908;-56
2022/10/09 08:28:42;;;;;;;;;;;26.70;94.30;;;;;;5127348;28;24111;-50
2022/10/09 08:31:12;;;;;;;;;;;26.70;94.30;;;;;;5127720;28;19946;-52
2022/10/09 08:33:38;;;;;;;;;;;26.70;94.30;;;;;;5127484;28;19904;-47
2022/10/09 08:36:06;;;;;;;;;;;26.70;94.30;;;;;;5128345;28;20195;-43
2022/10/09 08:38:33;;;;;;;;;;;26.70;94.30;;;;;;5127343;28;24088;-45
2022/10/09 08:41:09;;;;;;;;;;;26.70;94.30;;;;;;5127710;28;19911;-44
2022/10/09 08:43:38;;;;;;;;;;;26.70;94.40;;;;;;5127724;28;19972;-48
2022/10/09 08:46:10;;;;;;;;;;;26.70;94.40;;;;;;5127616;28;20083;-49
2022/10/09 08:48:40;;;;;;;;;;;26.70;94.40;;;;;;5127730;28;20100;-45
2022/10/09 08:51:12;;;;;;;;;;;26.70;94.30;;;;;;5127754;28;24097;-43
2022/10/09 08:53:43;;;;;;;;;;;26.70;94.30;;;;;;5127373;28;20091;-49
2022/10/09 08:56:14;;;;;;;;;;;26.70;94.30;;;;;;5127101;28;19975;-50
2022/10/09 08:58:41;;;;;;;;;;;26.70;94.30;;;;;;5126906;28;20243;-53
2022/10/09 09:01:20;;;;;;;;;;;26.70;94.30;;;;;;5127317;28;20210;-45
2022/10/09 09:03:49;;;;;;;;;;;26.70;94.30;;;;;;5126638;28;24083;-49
2022/10/09 09:06:23;;;;;;;;;;;26.60;94.30;;;;;;5127082;28;24064;-49
2022/10/09 09:08:59;;;;;;;;;;;26.60;94.30;;;;;;5126964;28;19910;-44
2022/10/09 09:11:44;;;;;;;;;;;26.60;94.30;;;;;;5125771;28;19946;-49
2022/10/09 09:14:10;;;;;;;;;;;26.60;94.30;;;;;;5126951;28;19904;-44
2022/10/09 09:16:49;;;;;;;;;;;26.60;94.40;;;;;;5126835;28;24078;-44
2022/10/09 09:19:24;;;;;;;;;;;26.60;94.40;;;;;;5126627;28;19938;-55
2022/10/09 09:21:51;;;;;;;;;;;26.60;94.40;;;;;;5127200;28;19908;-46
2022/10/09 09:24:18;;;;;;;;;;;26.60;94.40;;;;;;5126579;28;20009;-48
2022/10/09 09:26:47;;;;;;;;;;;26.60;94.40;;;;;;5126607;28;19978;-44
2022/10/09 09:29:14;;;;;;;;;;;26.60;94.50;;;;;;5126298;28;19938;-44
2022/10/09 09:31:42;;;;;;;;;;;26.60;94.50;;;;;;5126750;28;19979;-45
2022/10/09 09:34:11;;;;;;;;;;;26.60;94.50;;;;;;5126591;28;19956;-49
2022/10/09 09:36:40;;;;;;;;;;;26.60;94.50;;;;;;5126881;28;19914;-45
2022/10/09 09:39:09;;;;;;;;;;;26.60;94.50;;;;;;5126501;28;20207;-42
2022/10/09 09:41:35;;;;;;;;;;;26.60;94.50;;;;;;5126454;28;19915;-43
2022/10/09 09:44:01;;;;;;;;;;;26.60;94.50;;;;;;5126232;28;19910;-46
2022/10/09 09:46:29;;;;;;;;;;;26.60;94.50;;;;;;5126924;28;19974;-43
2022/10/09 09:48:55;;;;;;;;;;;26.60;94.50;;;;;;5126007;28;24076;-44
2022/10/09 09:51:24;;;;;;;;;;;26.60;94.50;;;;;;5126427;28;19904;-47
2022/10/09 09:53:51;;;;;;;;;;;26.50;94.60;;;;;;5126177;28;19912;-42
2022/10/09 09:56:18;;;;;;;;;;;26.50;94.50;;;;;;5126557;28;19971;-43
2022/10/09 09:58:46;;;;;;;;;;;26.50;94.50;;;;;;5125866;28;19907;-42
2022/10/09 10:01:21;;;;;;;;;;;26.50;94.50;;;;;;5126329;28;19950;-48
2022/10/09 10:03:49;;;;;;;;;;;26.60;94.80;;;;;;5125924;28;24063;-51
2022/10/09 10:06:28;;;;;;;;;;;26.50;94.50;;;;;;5126189;28;20028;-46
2022/10/09 10:09:02;;;;;;;;;;;26.50;94.50;;;;;;5125903;28;19948;-43
2022/10/09 10:11:29;;;;;;;;;;;26.50;94.50;;;;;;5125354;28;24080;-48
2022/10/09 10:13:55;;;;;;;;;;;26.50;94.60;;;;;;5125694;28;19910;-49
2022/10/09 10:16:21;;;;;;;;;;;26.50;94.60;;;;;;5126275;28;19908;-45
2022/10/09 10:18:48;;;;;;;;;;;26.40;94.60;;;;;;5125781;28;19904;-45
2022/10/09 10:21:15;;;;;;;;;;;26.40;94.60;;;;;;5125998;28;20092;-50
2022/10/09 10:24:13;;;;;;;;;;;26.50;94.60;;;;;;5125240;28;24075;-45
2022/10/09 10:26:45;;;;;;;;;;;26.50;94.60;;;;;;5091170;28;19930;-49
2022/10/09 10:29:17;;;;;;;;;;;26.50;94.60;;;;;;5125772;28;19912;-50
2022/10/09 10:32:01;;;;;;;;;;;26.40;94.50;;;;;;5125795;28;19915;-49
2022/10/09 10:34:32;;;;;;;;;;;26.40;94.60;;;;;;5125388;28;19910;-47
2022/10/09 10:37:05;;;;;;;;;;;26.40;94.60;;;;;;5125583;28;19939;-48
2022/10/09 10:39:36;;;;;;;;;;;26.40;94.50;;;;;;5125425;28;19907;-44
2022/10/09 10:42:04;;;;;;;;;;;26.40;94.50;;;;;;5124968;28;19907;-43
2022/10/09 10:44:38;;;;;;;;;;;26.40;94.50;;;;;;5125215;28;20173;-43
2022/10/09 10:47:12;;;;;;;;;;;26.40;94.40;;;;;;5125062;28;19915;-45
2022/10/09 10:49:39;;;;;;;;;;;26.30;94.30;;;;;;5106760;28;20192;-45
2022/10/09 10:52:14;;;;;;;;;;;26.30;94.30;;;;;;5124958;28;19945;-45
2022/10/09 10:54:50;;;;;;;;;;;26.30;94.30;;;;;;5124696;28;19903;-45
2022/10/09 10:57:31;;;;;;;;;;;26.30;94.20;;;;;;5124992;28;20230;-46
2022/10/09 11:00:04;;;;;;;;;;;26.30;94.20;;;;;;5124671;28;19915;-46
2022/10/09 11:02:45;;;;;;;;;;;26.30;94.10;;;;;;5124636;28;19926;-49
2022/10/09 11:05:12;;;;;;;;;;;26.30;94.10;;;;;;5124633;28;20116;-47
2022/10/09 11:07:41;;;;;;;;;;;26.30;94.10;;;;;;5124887;28;19904;-48
2022/10/09 11:10:16;;;;;;;;;;;26.30;94.10;;;;;;5124419;28;24083;-48
2022/10/09 11:12:42;;;;;;;;;;;26.30;94.10;;;;;;5124356;28;19904;-45
2022/10/09 11:15:18;;;;;;;;;;;26.30;94.10;;;;;;5124818;28;19998;-47
2022/10/09 11:17:51;;;;;;;;;;;26.30;94.10;;;;;;5124488;28;19974;-45
2022/10/09 11:20:26;;;;;;;;;;;26.30;94.10;;;;;;5124958;28;19934;-49
2022/10/09 11:22:53;;;;;;;;;;;26.30;94.10;;;;;;5124539;28;19903;-47
2022/10/09 11:25:28;;;;;;;;;;;26.30;94.10;;;;;;5124294;28;24069;-47
2022/10/09 11:27:54;;;;;;;;;;;26.30;94.20;;;;;;5112086;28;24087;-45
2022/10/09 11:30:21;;;;;;;;;;;26.30;94.20;;;;;;5035578;28;19975;-48
2022/10/09 11:32:59;;;;;;;;;;;26.30;94.20;;;;;;5040725;28;20160;-46
2022/10/09 11:35:38;;;;;;;;;;;26.30;94.20;;;;;;5040207;28;19932;-48
2022/10/09 11:38:20;;;;;;;;;;;26.30;94.20;;;;;;5040960;28;19912;-52
2022/10/09 11:40:46;;;;;;;;;;;26.30;94.30;;;;;;5037764;28;19914;-49
2022/10/09 11:43:21;;;;;;;;;;;26.30;94.40;;;;;;5020891;28;25029;-46
2022/10/09 11:45:52;;;;;;;;;;;26.30;94.40;;;;;;5021001;28;24059;-49
2022/10/09 11:48:25;;;;;;;;;;;26.30;94.40;;;;;;5020775;28;19902;-50
2022/10/09 11:51:04;;;;;;;;;;;26.30;94.40;;;;;;5021279;28;19916;-48
2022/10/09 11:53:33;;;;;;;;;;;26.30;94.40;;;;;;5020633;28;20127;-53
2022/10/09 11:56:06;;;;;;;;;;;26.30;94.50;;;;;;5020721;28;19910;-50
2022/10/09 11:58:34;;;;;;;;;;;26.30;94.60;;;;;;5021037;28;19909;-52
2022/10/09 12:01:12;;;;;;;;;;;26.30;94.60;;;;;;5038826;28;19917;-48
2022/10/09 12:03:38;;;;;;;;;;;26.30;94.60;;;;;;5040222;28;19950;-50
2022/10/09 12:06:07;;;;;;;;;;;26.30;94.50;;;;;;5040682;28;19909;-46
2022/10/09 12:08:33;;;;;;;;;;;26.30;94.40;;;;;;5040369;28;19916;-48
2022/10/09 12:11:08;;;;;;;;;;;26.30;94.50;;;;;;5040725;28;19905;-45
2022/10/09 12:13:43;;;;;;;;;;;26.30;94.50;;;;;;5040500;28;20243;-48
2022/10/09 12:16:27;;;;;;;;;;;26.30;94.60;;;;;;5040846;28;20006;-46
2022/10/09 12:18:53;;;;;;;;;;;26.30;94.70;;;;;;5039763;28;19912;-49
2022/10/09 12:21:26;;;;;;;;;;;26.30;94.60;;;;;;5039912;28;19913;-44
2022/10/09 12:23:52;;;;;;;;;;;26.30;94.70;;;;;;5026320;28;20186;-44
2022/10/09 12:26:21;;;;;;;;;;;26.20;94.60;;;;;;5031188;28;19909;-47
2022/10/09 12:28:54;;;;;;;;;;;26.30;94.80;;;;;;5040185;28;19905;-46
2022/10/09 12:31:25;;;;;;;;;;;26.30;94.80;;;;;;5040284;28;24088;-45
2022/10/09 12:33:56;;;;;;;;;;;26.30;94.80;;;;;;5040141;28;19905;-47
2022/10/09 12:36:32;;;;;;;;;;;26.30;94.90;;;;;;5033438;28;19955;-44
2022/10/09 12:39:11;;;;;;;;;;;26.30;94.90;;;;;;5020092;28;20182;-46
2022/10/09 12:41:37;;;;;;;;;;;26.30;95.10;;;;;;5020208;28;19934;-45
2022/10/09 12:44:05;;;;;;;;;;;26.30;95.10;;;;;;5021895;28;19913;-50
2022/10/09 12:46:32;;;;;;;;;;;26.30;95.10;;;;;;5020491;28;19954;-52
2022/10/09 12:48:59;;;;;;;;;;;26.30;95.20;;;;;;5023499;28;19909;-49
2022/10/09 12:51:27;;;;;;;;;;;26.30;95.20;;;;;;5023503;28;20165;-50
2022/10/09 12:53:54;;;;;;;;;;;26.30;95.30;;;;;;5029582;28;20212;-46
2022/10/09 12:56:22;;;;;;;;;;;26.30;95.20;;;;;;5043679;28;19944;-43
2022/10/09 12:58:48;;;;;;;;;;;26.30;95.30;;;;;;5025462;28;24105;-51
2022/10/09 13:01:15;;;;;;;;;;;26.30;95.20;;;;;;5025616;28;19920;-49
2022/10/09 13:03:42;;;;;;;;;;;26.30;95.20;;;;;;5042614;28;24092;-53
2022/10/09 13:06:11;;;;;;;;;;;26.30;95.20;;;;;;5042919;28;24070;-49
2022/10/09 13:08:38;;;;;;;;;;;26.30;95.20;;;;;;5042590;28;19905;-45
2022/10/09 13:11:11;;;;;;;;;;;26.30;95.20;;;;;;5042448;28;19913;-45
2022/10/09 13:13:38;;;;;;;;;;;26.30;95.20;;;;;;5022418;28;24069;-49
2022/10/09 13:16:08;;;;;;;;;;;26.30;95.20;;;;;;5023579;28;20189;-49
2022/10/09 13:18:34;;;;;;;;;;;26.30;95.20;;;;;;5022785;28;24090;-49
2022/10/09 13:21:21;;;;;;;;;;;26.30;95.20;;;;;;5022929;28;19920;-48
2022/10/09 13:23:48;;;;;;;;;;;26.30;95.20;;;;;;5022589;28;24067;-47
2022/10/09 13:26:34;;;;;;;;;;;26.30;95.50;;;;;;5022500;28;19910;-50
2022/10/09 13:29:03;;;;;;;;;;;26.30;95.30;;;;;;5022542;28;19945;-47
2022/10/09 13:31:31;;;;;;;;;;;26.30;95.10;;;;;;5029617;28;20070;-50
2022/10/09 13:33:57;;;;;;;;;;;26.30;95.10;;;;;;5035364;28;20134;-46
2022/10/09 13:36:23;;;;;;;;;;;26.30;95.10;;;;;;5022749;28;24057;-46
2022/10/09 13:38:50;;;;;;;;;;;26.30;95.10;;;;;;5027519;28;19928;-49
2022/10/09 13:41:21;;;;;;;;;;;26.30;95.20;;;;;;5028032;28;19917;-47
2022/10/09 13:43:48;;;;;;;;;;;26.40;95.20;;;;;;5005291;28;19976;-46
2022/10/09 13:46:15;;;;;;;;;;;26.40;94.90;;;;;;5022558;28;19906;-48
2022/10/09 13:48:41;;;;;;;;;;;26.30;94.90;;;;;;5022438;28;24080;-55
2022/10/09 13:51:07;;;;;;;;;;;26.30;94.80;;;;;;5022551;28;19936;-44
2022/10/09 13:53:33;;;;;;;;;;;26.40;95.00;;;;;;5022033;28;19905;-45
2022/10/09 13:56:00;;;;;;;;;;;26.40;94.80;;;;;;5022341;28;19950;-52
2022/10/09 13:58:26;;;;;;;;;;;26.40;95.00;;;;;;5022088;28;19972;-51
2022/10/09 14:00:52;;;;;;;;;;;26.40;95.10;;;;;;5021895;28;24057;-50
2022/10/09 14:03:18;;;;;;;;;;;26.40;95.10;;;;;;5022561;28;20101;-52
2022/10/09 14:05:44;;;;;;;;;;;26.40;95.10;;;;;;5022091;28;19916;-47
2022/10/09 14:08:11;;;;;;;;;;;26.50;95.10;;;;;;5021954;28;20235;-46
2022/10/09 14:10:43;;;;;;;;;;;26.50;94.40;;;;;;5022243;28;19943;-44
2022/10/09 14:13:09;;;;;;;;;;;26.50;94.80;;;;;;5022078;28;19994;-44
2022/10/09 14:15:39;;;;;;;;;;;26.50;94.20;;;;;;5022347;28;19909;-50
2022/10/09 14:18:05;;;;;;;;;;;26.50;94.40;;;;;;5022388;28;20124;-48
2022/10/09 14:20:32;;;;;;;;;;;26.50;94.30;;;;;;5022170;28;20191;-44
2022/10/09 14:22:58;;;;;;;;;;;26.60;94.20;;;;;;5021879;28;24110;-47
2022/10/09 14:25:24;;;;;;;;;;;26.60;94.10;;;;;;5021692;28;19909;-48
2022/10/09 14:27:53;;;;;;;;;;;26.60;94.20;;;;;;5020775;28;19910;-49
2022/10/09 14:30:19;;;;;;;;;;;26.60;94.20;;;;;;5019871;28;19940;-53